sensor_id;sensor_type;location;lat;lon;timestamp;P1;durP1;ratioP1;P2;durP2;ratioP2
56267;SDS011;42175;46.930;9.532;2023-04-22T00:00:37;3.00;;;1.20;;
56267;SDS011;42175;46.930;9.532;2023-04-22T00:03:03;3.25;;;1.13;;
56267;SDS011;42175;46.930;9.532;2023-04-22T00:05:29;1.42;;;1.10;;
56267;SDS011;42175;46.930;9.532;2023-04-22T00:07:55;1.40;;;1.02;;
56267;SDS011;42175;46.930;9.532;2023-04-22T00:10:21;1.83;;;1.00;;
56267;SDS011;42175;46.930;9.532;2023-04-22T00:12:46;2.45;;;1.20;;
56267;SDS011;42175;46.930;9.532;2023-04-22T00:15:12;4.55;;;1.02;;
56267;SDS011;42175;46.930;9.532;2023-04-22T00:17:38;1.25;;;0.90;;
56267;SDS011;42175;46.930;9.532;2023-04-22T00:20:05;1.42;;;0.98;;
56267;SDS011;42175;46.930;9.532;2023-04-22T00:22:32;1.00;;;0.90;;
56267;SDS011;42175;46.930;9.532;2023-04-22T00:24:57;2.97;;;1.17;;
56267;SDS011;42175;46.930;9.532;2023-04-22T00:27:23;1.67;;;1.10;;
56267;SDS011;42175;46.930;9.532;2023-04-22T00:29:48;1.27;;;0.98;;
56267;SDS011;42175;46.930;9.532;2023-04-22T00:32:14;3.17;;;1.25;;
56267;SDS011;42175;46.930;9.532;2023-04-22T00:34:40;1.58;;;1.05;;
56267;SDS011;42175;46.930;9.532;2023-04-22T00:37:06;2.28;;;1.00;;
56267;SDS011;42175;46.930;9.532;2023-04-22T00:39:31;3.58;;;1.23;;
56267;SDS011;42175;46.930;9.532;2023-04-22T00:41:57;2.47;;;1.10;;
56267;SDS011;42175;46.930;9.532;2023-04-22T00:44:24;1.45;;;1.08;;
56267;SDS011;42175;46.930;9.532;2023-04-22T00:46:51;1.40;;;1.17;;
56267;SDS011;42175;46.930;9.532;2023-04-22T00:49:17;1.90;;;1.30;;
56267;SDS011;42175;46.930;9.532;2023-04-22T00:51:44;1.50;;;1.17;;
56267;SDS011;42175;46.930;9.532;2023-04-22T00:54:10;2.15;;;1.00;;
56267;SDS011;42175;46.930;9.532;2023-04-22T00:56:35;3.15;;;1.10;;
56267;SDS011;42175;46.930;9.532;2023-04-22T00:59:03;3.40;;;1.10;;
56267;SDS011;42175;46.930;9.532;2023-04-22T01:01:29;1.60;;;1.00;;
56267;SDS011;42175;46.930;9.532;2023-04-22T01:03:56;2.85;;;1.10;;
56267;SDS011;42175;46.930;9.532;2023-04-22T01:06:22;2.63;;;1.30;;
56267;SDS011;42175;46.930;9.532;2023-04-22T01:08:48;1.98;;;1.17;;
56267;SDS011;42175;46.930;9.532;2023-04-22T01:11:14;2.45;;;1.27;;
56267;SDS011;42175;46.930;9.532;2023-04-22T01:13:40;1.70;;;1.27;;
56267;SDS011;42175;46.930;9.532;2023-04-22T01:16:06;2.60;;;1.30;;
56267;SDS011;42175;46.930;9.532;2023-04-22T01:18:34;1.35;;;0.80;;
56267;SDS011;42175;46.930;9.532;2023-04-22T01:21:00;3.22;;;1.67;;
56267;SDS011;42175;46.930;9.532;2023-04-22T01:23:26;2.20;;;1.27;;
56267;SDS011;42175;46.930;9.532;2023-04-22T01:25:52;2.97;;;1.08;;
56267;SDS011;42175;46.930;9.532;2023-04-22T01:28:18;2.22;;;1.15;;
56267;SDS011;42175;46.930;9.532;2023-04-22T01:30:45;1.80;;;1.30;;
56267;SDS011;42175;46.930;9.532;2023-04-22T01:33:12;1.92;;;1.30;;
56267;SDS011;42175;46.930;9.532;2023-04-22T01:35:39;2.88;;;0.95;;
56267;SDS011;42175;46.930;9.532;2023-04-22T01:38:06;1.73;;;1.02;;
56267;SDS011;42175;46.930;9.532;2023-04-22T01:40:34;3.25;;;1.50;;
56267;SDS011;42175;46.930;9.532;2023-04-22T01:42:59;2.08;;;1.20;;
56267;SDS011;42175;46.930;9.532;2023-04-22T01:45:26;2.38;;;1.20;;
56267;SDS011;42175;46.930;9.532;2023-04-22T01:47:52;1.30;;;1.10;;
56267;SDS011;42175;46.930;9.532;2023-04-22T01:50:18;1.63;;;1.02;;
56267;SDS011;42175;46.930;9.532;2023-04-22T01:52:44;1.77;;;1.27;;
56267;SDS011;42175;46.930;9.532;2023-04-22T01:55:10;1.27;;;0.95;;
56267;SDS011;42175;46.930;9.532;2023-04-22T01:57:36;1.35;;;1.08;;
56267;SDS011;42175;46.930;9.532;2023-04-22T02:00:02;3.70;;;1.10;;
56267;SDS011;42175;46.930;9.532;2023-04-22T02:02:29;1.50;;;1.10;;
56267;SDS011;42175;46.930;9.532;2023-04-22T02:04:55;1.60;;;1.10;;
56267;SDS011;42175;46.930;9.532;2023-04-22T02:07:20;3.88;;;1.25;;
56267;SDS011;42175;46.930;9.532;2023-04-22T02:09:46;2.67;;;1.23;;
56267;SDS011;42175;46.930;9.532;2023-04-22T02:12:12;1.95;;;1.30;;
56267;SDS011;42175;46.930;9.532;2023-04-22T02:14:38;2.97;;;1.20;;
56267;SDS011;42175;46.930;9.532;2023-04-22T02:17:03;1.48;;;0.90;;
56267;SDS011;42175;46.930;9.532;2023-04-22T02:19:29;2.05;;;1.10;;
56267;SDS011;42175;46.930;9.532;2023-04-22T02:21:55;1.92;;;1.17;;
56267;SDS011;42175;46.930;9.532;2023-04-22T02:24:21;2.70;;;1.10;;
56267;SDS011;42175;46.930;9.532;2023-04-22T02:26:47;1.20;;;1.00;;
56267;SDS011;42175;46.930;9.532;2023-04-22T02:29:13;1.17;;;0.90;;
56267;SDS011;42175;46.930;9.532;2023-04-22T02:31:40;2.40;;;1.40;;
56267;SDS011;42175;46.930;9.532;2023-04-22T02:34:06;1.70;;;1.00;;
56267;SDS011;42175;46.930;9.532;2023-04-22T02:36:32;2.30;;;1.23;;
56267;SDS011;42175;46.930;9.532;2023-04-22T02:38:59;2.05;;;1.38;;
56267;SDS011;42175;46.930;9.532;2023-04-22T02:41:29;2.40;;;1.30;;
56267;SDS011;42175;46.930;9.532;2023-04-22T02:43:55;4.05;;;1.20;;
56267;SDS011;42175;46.930;9.532;2023-04-22T02:46:20;1.88;;;1.10;;
56267;SDS011;42175;46.930;9.532;2023-04-22T02:48:46;3.28;;;1.20;;
56267;SDS011;42175;46.930;9.532;2023-04-22T02:51:13;2.97;;;1.30;;
56267;SDS011;42175;46.930;9.532;2023-04-22T02:53:39;1.80;;;1.40;;
56267;SDS011;42175;46.930;9.532;2023-04-22T02:56:05;2.55;;;1.25;;
56267;SDS011;42175;46.930;9.532;2023-04-22T02:58:32;5.20;;;1.10;;
56267;SDS011;42175;46.930;9.532;2023-04-22T03:00:58;1.70;;;1.20;;
56267;SDS011;42175;46.930;9.532;2023-04-22T03:03:24;1.88;;;1.10;;
56267;SDS011;42175;46.930;9.532;2023-04-22T03:05:50;2.15;;;1.40;;
56267;SDS011;42175;46.930;9.532;2023-04-22T03:08:17;1.45;;;1.10;;
56267;SDS011;42175;46.930;9.532;2023-04-22T03:10:43;2.95;;;1.20;;
56267;SDS011;42175;46.930;9.532;2023-04-22T03:13:09;5.18;;;1.20;;
56267;SDS011;42175;46.930;9.532;2023-04-22T03:15:37;2.42;;;1.40;;
56267;SDS011;42175;46.930;9.532;2023-04-22T03:18:06;1.85;;;1.33;;
56267;SDS011;42175;46.930;9.532;2023-04-22T03:20:33;2.45;;;1.10;;
56267;SDS011;42175;46.930;9.532;2023-04-22T03:22:59;2.20;;;1.30;;
56267;SDS011;42175;46.930;9.532;2023-04-22T03:25:25;1.92;;;1.30;;
56267;SDS011;42175;46.930;9.532;2023-04-22T03:27:51;3.88;;;1.40;;
56267;SDS011;42175;46.930;9.532;2023-04-22T03:30:16;4.15;;;1.48;;
56267;SDS011;42175;46.930;9.532;2023-04-22T03:32:42;2.25;;;1.13;;
56267;SDS011;42175;46.930;9.532;2023-04-22T03:35:08;1.40;;;1.20;;
56267;SDS011;42175;46.930;9.532;2023-04-22T03:37:33;2.55;;;1.30;;
56267;SDS011;42175;46.930;9.532;2023-04-22T03:39:59;2.55;;;1.60;;
56267;SDS011;42175;46.930;9.532;2023-04-22T03:42:25;2.95;;;1.45;;
56267;SDS011;42175;46.930;9.532;2023-04-22T03:44:51;2.63;;;1.30;;
56267;SDS011;42175;46.930;9.532;2023-04-22T03:47:16;2.15;;;1.42;;
56267;SDS011;42175;46.930;9.532;2023-04-22T03:49:42;6.65;;;1.52;;
56267;SDS011;42175;46.930;9.532;2023-04-22T03:52:08;2.22;;;1.20;;
56267;SDS011;42175;46.930;9.532;2023-04-22T03:54:35;3.58;;;1.02;;
56267;SDS011;42175;46.930;9.532;2023-04-22T03:57:00;1.45;;;1.20;;
56267;SDS011;42175;46.930;9.532;2023-04-22T03:59:26;2.22;;;1.40;;
56267;SDS011;42175;46.930;9.532;2023-04-22T04:01:52;1.67;;;1.20;;
56267;SDS011;42175;46.930;9.532;2023-04-22T04:04:18;2.00;;;1.25;;
56267;SDS011;42175;46.930;9.532;2023-04-22T04:06:44;2.15;;;1.42;;
56267;SDS011;42175;46.930;9.532;2023-04-22T04:09:10;2.63;;;1.45;;
56267;SDS011;42175;46.930;9.532;2023-04-22T04:11:36;2.15;;;1.20;;
56267;SDS011;42175;46.930;9.532;2023-04-22T04:14:02;4.32;;;1.40;;
56267;SDS011;42175;46.930;9.532;2023-04-22T04:16:28;2.38;;;1.25;;
56267;SDS011;42175;46.930;9.532;2023-04-22T04:18:53;1.30;;;1.10;;
56267;SDS011;42175;46.930;9.532;2023-04-22T04:21:19;3.58;;;1.30;;
56267;SDS011;42175;46.930;9.532;2023-04-22T04:23:46;1.58;;;1.10;;
56267;SDS011;42175;46.930;9.532;2023-04-22T04:26:12;1.80;;;1.30;;
56267;SDS011;42175;46.930;9.532;2023-04-22T04:28:39;1.88;;;0.95;;
56267;SDS011;42175;46.930;9.532;2023-04-22T04:31:05;2.08;;;1.27;;
56267;SDS011;42175;46.930;9.532;2023-04-22T04:33:31;1.85;;;1.27;;
56267;SDS011;42175;46.930;9.532;2023-04-22T04:35:57;1.90;;;1.27;;
56267;SDS011;42175;46.930;9.532;2023-04-22T04:38:24;4.32;;;1.13;;
56267;SDS011;42175;46.930;9.532;2023-04-22T04:40:50;1.40;;;1.00;;
56267;SDS011;42175;46.930;9.532;2023-04-22T04:43:16;1.75;;;1.10;;
56267;SDS011;42175;46.930;9.532;2023-04-22T04:45:42;1.85;;;1.00;;
56267;SDS011;42175;46.930;9.532;2023-04-22T04:48:11;3.55;;;1.30;;
56267;SDS011;42175;46.930;9.532;2023-04-22T04:50:39;2.30;;;1.08;;
56267;SDS011;42175;46.930;9.532;2023-04-22T04:53:06;1.92;;;1.20;;
56267;SDS011;42175;46.930;9.532;2023-04-22T04:55:32;3.05;;;1.63;;
56267;SDS011;42175;46.930;9.532;2023-04-22T04:57:58;1.40;;;1.05;;
56267;SDS011;42175;46.930;9.532;2023-04-22T05:00:23;2.88;;;1.60;;
56267;SDS011;42175;46.930;9.532;2023-04-22T05:02:49;1.90;;;1.45;;
56267;SDS011;42175;46.930;9.532;2023-04-22T05:05:15;3.00;;;1.38;;
56267;SDS011;42175;46.930;9.532;2023-04-22T05:07:40;2.55;;;1.40;;
56267;SDS011;42175;46.930;9.532;2023-04-22T05:10:06;2.55;;;1.20;;
56267;SDS011;42175;46.930;9.532;2023-04-22T05:12:32;3.50;;;1.40;;
56267;SDS011;42175;46.930;9.532;2023-04-22T05:14:58;2.90;;;1.38;;
56267;SDS011;42175;46.930;9.532;2023-04-22T05:17:24;1.67;;;1.30;;
56267;SDS011;42175;46.930;9.532;2023-04-22T05:19:49;1.98;;;1.35;;
56267;SDS011;42175;46.930;9.532;2023-04-22T05:22:15;2.05;;;1.40;;
56267;SDS011;42175;46.930;9.532;2023-04-22T05:24:42;1.33;;;1.10;;
56267;SDS011;42175;46.930;9.532;2023-04-22T05:27:08;4.13;;;1.23;;
56267;SDS011;42175;46.930;9.532;2023-04-22T05:29:34;3.70;;;1.20;;
56267;SDS011;42175;46.930;9.532;2023-04-22T05:31:59;3.17;;;1.50;;
56267;SDS011;42175;46.930;9.532;2023-04-22T05:34:25;3.78;;;1.42;;
56267;SDS011;42175;46.930;9.532;2023-04-22T05:36:51;2.67;;;1.60;;
56267;SDS011;42175;46.930;9.532;2023-04-22T05:39:17;2.00;;;1.20;;
56267;SDS011;42175;46.930;9.532;2023-04-22T05:41:43;3.90;;;1.38;;
56267;SDS011;42175;46.930;9.532;2023-04-22T05:44:08;1.70;;;1.40;;
56267;SDS011;42175;46.930;9.532;2023-04-22T05:46:34;3.70;;;1.35;;
56267;SDS011;42175;46.930;9.532;2023-04-22T05:49:00;2.60;;;1.05;;
56267;SDS011;42175;46.930;9.532;2023-04-22T05:51:26;3.22;;;1.50;;
56267;SDS011;42175;46.930;9.532;2023-04-22T05:53:51;1.88;;;1.42;;
56267;SDS011;42175;46.930;9.532;2023-04-22T05:56:17;2.17;;;1.20;;
56267;SDS011;42175;46.930;9.532;2023-04-22T05:58:45;3.05;;;1.30;;
56267;SDS011;42175;46.930;9.532;2023-04-22T06:01:10;2.85;;;1.48;;
56267;SDS011;42175;46.930;9.532;2023-04-22T06:03:36;2.13;;;1.42;;
56267;SDS011;42175;46.930;9.532;2023-04-22T06:06:02;1.77;;;1.35;;
56267;SDS011;42175;46.930;9.532;2023-04-22T06:08:28;3.63;;;2.08;;
56267;SDS011;42175;46.930;9.532;2023-04-22T06:10:55;3.80;;;2.00;;
56267;SDS011;42175;46.930;9.532;2023-04-22T06:13:21;8.60;;;1.98;;
56267;SDS011;42175;46.930;9.532;2023-04-22T06:15:46;2.95;;;2.00;;
56267;SDS011;42175;46.930;9.532;2023-04-22T06:18:12;3.42;;;1.80;;
56267;SDS011;42175;46.930;9.532;2023-04-22T06:20:38;2.08;;;1.60;;
56267;SDS011;42175;46.930;9.532;2023-04-22T06:23:04;1.98;;;1.33;;
56267;SDS011;42175;46.930;9.532;2023-04-22T06:25:30;2.22;;;1.60;;
56267;SDS011;42175;46.930;9.532;2023-04-22T06:27:58;4.75;;;1.67;;
56267;SDS011;42175;46.930;9.532;2023-04-22T06:30:24;2.70;;;1.40;;
56267;SDS011;42175;46.930;9.532;2023-04-22T06:32:51;3.03;;;1.60;;
56267;SDS011;42175;46.930;9.532;2023-04-22T06:35:16;3.55;;;1.50;;
56267;SDS011;42175;46.930;9.532;2023-04-22T06:37:42;6.15;;;1.48;;
56267;SDS011;42175;46.930;9.532;2023-04-22T06:40:09;2.25;;;1.50;;
56267;SDS011;42175;46.930;9.532;2023-04-22T06:42:35;10.23;;;2.00;;
56267;SDS011;42175;46.930;9.532;2023-04-22T06:45:01;5.50;;;2.03;;
56267;SDS011;42175;46.930;9.532;2023-04-22T06:47:28;11.55;;;3.75;;
56267;SDS011;42175;46.930;9.532;2023-04-22T06:49:53;8.45;;;3.45;;
56267;SDS011;42175;46.930;9.532;2023-04-22T06:52:19;8.82;;;2.50;;
56267;SDS011;42175;46.930;9.532;2023-04-22T06:54:45;19.58;;;3.38;;
56267;SDS011;42175;46.930;9.532;2023-04-22T06:57:11;11.40;;;2.67;;
56267;SDS011;42175;46.930;9.532;2023-04-22T06:59:37;13.98;;;3.50;;
56267;SDS011;42175;46.930;9.532;2023-04-22T07:02:02;13.82;;;3.10;;
56267;SDS011;42175;46.930;9.532;2023-04-22T07:04:29;8.52;;;3.13;;
56267;SDS011;42175;46.930;9.532;2023-04-22T07:06:55;11.02;;;2.80;;
56267;SDS011;42175;46.930;9.532;2023-04-22T07:09:22;11.48;;;3.30;;
56267;SDS011;42175;46.930;9.532;2023-04-22T07:11:48;9.40;;;2.45;;
56267;SDS011;42175;46.930;9.532;2023-04-22T07:14:13;14.00;;;2.90;;
56267;SDS011;42175;46.930;9.532;2023-04-22T07:16:39;9.98;;;3.22;;
56267;SDS011;42175;46.930;9.532;2023-04-22T07:19:04;7.70;;;2.60;;
56267;SDS011;42175;46.930;9.532;2023-04-22T07:21:31;8.13;;;2.70;;
56267;SDS011;42175;46.930;9.532;2023-04-22T07:23:57;7.35;;;3.20;;
56267;SDS011;42175;46.930;9.532;2023-04-22T07:26:22;10.98;;;2.65;;
56267;SDS011;42175;46.930;9.532;2023-04-22T07:28:48;6.65;;;2.65;;
56267;SDS011;42175;46.930;9.532;2023-04-22T07:31:14;7.40;;;2.58;;
56267;SDS011;42175;46.930;9.532;2023-04-22T07:33:40;7.47;;;2.50;;
56267;SDS011;42175;46.930;9.532;2023-04-22T07:36:06;7.18;;;2.50;;
56267;SDS011;42175;46.930;9.532;2023-04-22T07:38:32;7.55;;;2.40;;
56267;SDS011;42175;46.930;9.532;2023-04-22T07:40:57;9.15;;;2.55;;
56267;SDS011;42175;46.930;9.532;2023-04-22T07:43:23;7.63;;;3.13;;
56267;SDS011;42175;46.930;9.532;2023-04-22T07:45:49;12.15;;;3.00;;
56267;SDS011;42175;46.930;9.532;2023-04-22T07:48:15;6.93;;;2.80;;
56267;SDS011;42175;46.930;9.532;2023-04-22T07:50:41;6.63;;;2.75;;
56267;SDS011;42175;46.930;9.532;2023-04-22T07:53:07;7.53;;;2.78;;
56267;SDS011;42175;46.930;9.532;2023-04-22T07:55:34;5.70;;;2.45;;
56267;SDS011;42175;46.930;9.532;2023-04-22T07:58:00;7.22;;;2.80;;
56267;SDS011;42175;46.930;9.532;2023-04-22T08:00:30;7.50;;;2.40;;
56267;SDS011;42175;46.930;9.532;2023-04-22T08:02:59;5.30;;;2.55;;
56267;SDS011;42175;46.930;9.532;2023-04-22T08:05:25;5.43;;;2.60;;
56267;SDS011;42175;46.930;9.532;2023-04-22T08:07:50;8.88;;;2.70;;
56267;SDS011;42175;46.930;9.532;2023-04-22T08:10:16;7.82;;;2.20;;
56267;SDS011;42175;46.930;9.532;2023-04-22T08:12:42;5.97;;;2.50;;
56267;SDS011;42175;46.930;9.532;2023-04-22T08:15:08;4.68;;;2.60;;
56267;SDS011;42175;46.930;9.532;2023-04-22T08:17:33;4.65;;;2.58;;
56267;SDS011;42175;46.930;9.532;2023-04-22T08:19:59;5.00;;;2.65;;
56267;SDS011;42175;46.930;9.532;2023-04-22T08:22:25;4.75;;;2.47;;
56267;SDS011;42175;46.930;9.532;2023-04-22T08:24:51;7.22;;;2.58;;
56267;SDS011;42175;46.930;9.532;2023-04-22T08:27:17;4.72;;;2.67;;
56267;SDS011;42175;46.930;9.532;2023-04-22T08:29:44;4.90;;;2.35;;
56267;SDS011;42175;46.930;9.532;2023-04-22T08:32:10;6.18;;;2.35;;
56267;SDS011;42175;46.930;9.532;2023-04-22T08:34:36;7.35;;;2.50;;
56267;SDS011;42175;46.930;9.532;2023-04-22T08:37:02;4.30;;;2.38;;
56267;SDS011;42175;46.930;9.532;2023-04-22T08:39:28;4.57;;;2.40;;
56267;SDS011;42175;46.930;9.532;2023-04-22T08:41:54;7.40;;;2.80;;
56267;SDS011;42175;46.930;9.532;2023-04-22T08:44:20;5.20;;;2.80;;
56267;SDS011;42175;46.930;9.532;2023-04-22T08:46:46;4.20;;;2.10;;
56267;SDS011;42175;46.930;9.532;2023-04-22T08:49:16;5.18;;;2.80;;
56267;SDS011;42175;46.930;9.532;2023-04-22T08:51:43;5.72;;;2.55;;
56267;SDS011;42175;46.930;9.532;2023-04-22T08:54:11;6.70;;;2.60;;
56267;SDS011;42175;46.930;9.532;2023-04-22T08:56:39;5.18;;;2.20;;
56267;SDS011;42175;46.930;9.532;2023-04-22T08:59:08;4.13;;;2.15;;
56267;SDS011;42175;46.930;9.532;2023-04-22T09:01:35;5.35;;;2.30;;
56267;SDS011;42175;46.930;9.532;2023-04-22T09:04:04;4.30;;;2.28;;
56267;SDS011;42175;46.930;9.532;2023-04-22T09:06:31;6.22;;;2.70;;
56267;SDS011;42175;46.930;9.532;2023-04-22T09:08:57;3.63;;;2.45;;
56267;SDS011;42175;46.930;9.532;2023-04-22T09:11:27;6.20;;;2.92;;
56267;SDS011;42175;46.930;9.532;2023-04-22T09:13:53;5.72;;;2.28;;
56267;SDS011;42175;46.930;9.532;2023-04-22T09:16:19;7.95;;;2.50;;
56267;SDS011;42175;46.930;9.532;2023-04-22T09:18:44;10.40;;;2.67;;
56267;SDS011;42175;46.930;9.532;2023-04-22T09:21:10;9.05;;;2.33;;
56267;SDS011;42175;46.930;9.532;2023-04-22T09:23:49;7.05;;;2.58;;
56267;SDS011;42175;46.930;9.532;2023-04-22T09:26:23;7.70;;;2.50;;
56267;SDS011;42175;46.930;9.532;2023-04-22T09:31:16;3.53;;;1.88;;
56267;SDS011;42175;46.930;9.532;2023-04-22T09:33:46;3.15;;;2.28;;
56267;SDS011;42175;46.930;9.532;2023-04-22T09:36:37;3.60;;;2.47;;
56267;SDS011;42175;46.930;9.532;2023-04-22T09:39:05;5.20;;;2.58;;
56267;SDS011;42175;46.930;9.532;2023-04-22T09:41:35;5.68;;;2.22;;
56267;SDS011;42175;46.930;9.532;2023-04-22T09:44:13;5.67;;;2.43;;
56267;SDS011;42175;46.930;9.532;2023-04-22T09:46:40;5.90;;;2.50;;
56267;SDS011;42175;46.930;9.532;2023-04-22T09:49:07;3.90;;;2.25;;
56267;SDS011;42175;46.930;9.532;2023-04-22T09:51:33;3.22;;;2.35;;
56267;SDS011;42175;46.930;9.532;2023-04-22T09:54:04;6.13;;;2.45;;
56267;SDS011;42175;46.930;9.532;2023-04-22T09:56:47;4.32;;;2.10;;
56267;SDS011;42175;46.930;9.532;2023-04-22T10:01:46;4.90;;;2.33;;
56267;SDS011;42175;46.930;9.532;2023-04-22T10:04:13;5.90;;;2.10;;
56267;SDS011;42175;46.930;9.532;2023-04-22T10:06:40;4.47;;;2.13;;
56267;SDS011;42175;46.930;9.532;2023-04-22T10:09:06;4.65;;;2.00;;
56267;SDS011;42175;46.930;9.532;2023-04-22T10:11:33;5.55;;;2.08;;
56267;SDS011;42175;46.930;9.532;2023-04-22T10:13:59;6.97;;;2.38;;
56267;SDS011;42175;46.930;9.532;2023-04-22T10:16:26;5.45;;;2.03;;
56267;SDS011;42175;46.930;9.532;2023-04-22T10:18:56;7.00;;;2.25;;
56267;SDS011;42175;46.930;9.532;2023-04-22T10:21:25;7.32;;;2.53;;
56267;SDS011;42175;46.930;9.532;2023-04-22T10:23:52;4.95;;;2.20;;
56267;SDS011;42175;46.930;9.532;2023-04-22T10:29:07;6.30;;;2.22;;
56267;SDS011;42175;46.930;9.532;2023-04-22T10:31:37;4.00;;;2.38;;
56267;SDS011;42175;46.930;9.532;2023-04-22T10:34:13;6.22;;;2.50;;
56267;SDS011;42175;46.930;9.532;2023-04-22T10:36:51;7.40;;;2.58;;
56267;SDS011;42175;46.930;9.532;2023-04-22T10:39:17;5.15;;;2.10;;
56267;SDS011;42175;46.930;9.532;2023-04-22T10:42:07;5.60;;;2.88;;
56267;SDS011;42175;46.930;9.532;2023-04-22T10:47:26;4.68;;;2.22;;
56267;SDS011;42175;46.930;9.532;2023-04-22T10:52:39;5.43;;;2.38;;
56267;SDS011;42175;46.930;9.532;2023-04-22T10:55:07;5.03;;;2.38;;
56267;SDS011;42175;46.930;9.532;2023-04-22T10:57:35;4.20;;;2.38;;
56267;SDS011;42175;46.930;9.532;2023-04-22T11:02:52;8.43;;;2.42;;
56267;SDS011;42175;46.930;9.532;2023-04-22T11:05:24;5.68;;;2.17;;
56267;SDS011;42175;46.930;9.532;2023-04-22T11:07:52;6.70;;;2.47;;
56267;SDS011;42175;46.930;9.532;2023-04-22T11:10:35;7.28;;;2.97;;
56267;SDS011;42175;46.930;9.532;2023-04-22T11:13:15;7.63;;;2.10;;
56267;SDS011;42175;46.930;9.532;2023-04-22T11:15:46;4.45;;;2.13;;
56267;SDS011;42175;46.930;9.532;2023-04-22T11:18:17;6.85;;;2.17;;
56267;SDS011;42175;46.930;9.532;2023-04-22T11:20:45;6.45;;;2.50;;
56267;SDS011;42175;46.930;9.532;2023-04-22T11:23:15;7.63;;;2.83;;
56267;SDS011;42175;46.930;9.532;2023-04-22T11:25:54;8.07;;;2.95;;
56267;SDS011;42175;46.930;9.532;2023-04-22T11:28:24;5.05;;;2.35;;
56267;SDS011;42175;46.930;9.532;2023-04-22T11:30:50;9.38;;;2.67;;
56267;SDS011;42175;46.930;9.532;2023-04-22T11:33:16;7.93;;;3.00;;
56267;SDS011;42175;46.930;9.532;2023-04-22T11:35:43;7.97;;;3.42;;
56267;SDS011;42175;46.930;9.532;2023-04-22T11:38:08;6.10;;;2.92;;
56267;SDS011;42175;46.930;9.532;2023-04-22T11:40:35;5.38;;;2.45;;
56267;SDS011;42175;46.930;9.532;2023-04-22T11:43:06;6.10;;;3.15;;
56267;SDS011;42175;46.930;9.532;2023-04-22T11:45:34;6.55;;;2.65;;
56267;SDS011;42175;46.930;9.532;2023-04-22T11:48:01;8.60;;;2.50;;
56267;SDS011;42175;46.930;9.532;2023-04-22T11:50:30;4.13;;;2.17;;
56267;SDS011;42175;46.930;9.532;2023-04-22T11:53:01;6.15;;;2.38;;
56267;SDS011;42175;46.930;9.532;2023-04-22T11:55:29;5.68;;;2.25;;
56267;SDS011;42175;46.930;9.532;2023-04-22T11:58:23;7.05;;;2.20;;
56267;SDS011;42175;46.930;9.532;2023-04-22T12:00:49;5.32;;;2.00;;
56267;SDS011;42175;46.930;9.532;2023-04-22T12:03:19;5.95;;;2.25;;
56267;SDS011;42175;46.930;9.532;2023-04-22T12:05:54;5.60;;;2.28;;
56267;SDS011;42175;46.930;9.532;2023-04-22T12:08:25;6.07;;;2.65;;
56267;SDS011;42175;46.930;9.532;2023-04-22T12:10:56;8.27;;;2.60;;
56267;SDS011;42175;46.930;9.532;2023-04-22T12:13:24;5.95;;;2.33;;
56267;SDS011;42175;46.930;9.532;2023-04-22T12:15:55;4.43;;;2.53;;
56267;SDS011;42175;46.930;9.532;2023-04-22T12:18:36;6.15;;;2.33;;
56267;SDS011;42175;46.930;9.532;2023-04-22T12:21:19;7.45;;;2.03;;
56267;SDS011;42175;46.930;9.532;2023-04-22T12:26:23;5.45;;;2.40;;
56267;SDS011;42175;46.930;9.532;2023-04-22T12:28:50;6.50;;;2.15;;
56267;SDS011;42175;46.930;9.532;2023-04-22T12:31:17;4.88;;;2.28;;
56267;SDS011;42175;46.930;9.532;2023-04-22T12:33:43;3.97;;;2.38;;
56267;SDS011;42175;46.930;9.532;2023-04-22T12:36:10;8.27;;;2.55;;
56267;SDS011;42175;46.930;9.532;2023-04-22T12:38:36;6.13;;;2.20;;
56267;SDS011;42175;46.930;9.532;2023-04-22T12:41:03;5.78;;;2.33;;
56267;SDS011;42175;46.930;9.532;2023-04-22T12:43:30;4.75;;;2.30;;
56267;SDS011;42175;46.930;9.532;2023-04-22T12:45:58;7.15;;;2.53;;
56267;SDS011;42175;46.930;9.532;2023-04-22T12:48:24;6.47;;;2.28;;
56267;SDS011;42175;46.930;9.532;2023-04-22T12:50:50;8.75;;;2.42;;
56267;SDS011;42175;46.930;9.532;2023-04-22T12:53:16;6.03;;;2.40;;
56267;SDS011;42175;46.930;9.532;2023-04-22T12:55:41;4.47;;;2.25;;
56267;SDS011;42175;46.930;9.532;2023-04-22T12:58:07;5.40;;;2.13;;
56267;SDS011;42175;46.930;9.532;2023-04-22T13:00:33;7.60;;;2.42;;
56267;SDS011;42175;46.930;9.532;2023-04-22T13:02:58;3.53;;;1.75;;
56267;SDS011;42175;46.930;9.532;2023-04-22T13:05:24;5.18;;;2.15;;
56267;SDS011;42175;46.930;9.532;2023-04-22T13:07:50;5.95;;;2.47;;
56267;SDS011;42175;46.930;9.532;2023-04-22T13:10:17;4.10;;;2.35;;
56267;SDS011;42175;46.930;9.532;2023-04-22T13:12:42;8.90;;;2.53;;
56267;SDS011;42175;46.930;9.532;2023-04-22T13:15:08;4.80;;;2.60;;
56267;SDS011;42175;46.930;9.532;2023-04-22T13:17:35;4.05;;;2.10;;
56267;SDS011;42175;46.930;9.532;2023-04-22T13:20:01;9.98;;;2.50;;
56267;SDS011;42175;46.930;9.532;2023-04-22T13:22:29;4.53;;;2.20;;
56267;SDS011;42175;46.930;9.532;2023-04-22T13:24:54;5.50;;;2.50;;
56267;SDS011;42175;46.930;9.532;2023-04-22T13:27:20;6.00;;;2.30;;
56267;SDS011;42175;46.930;9.532;2023-04-22T13:29:46;5.03;;;2.35;;
56267;SDS011;42175;46.930;9.532;2023-04-22T13:32:11;3.38;;;2.17;;
56267;SDS011;42175;46.930;9.532;2023-04-22T13:34:37;5.57;;;2.20;;
56267;SDS011;42175;46.930;9.532;2023-04-22T13:37:04;7.43;;;2.50;;
56267;SDS011;42175;46.930;9.532;2023-04-22T13:39:30;4.65;;;2.35;;
56267;SDS011;42175;46.930;9.532;2023-04-22T13:41:56;6.80;;;2.20;;
56267;SDS011;42175;46.930;9.532;2023-04-22T13:44:22;4.43;;;2.35;;
56267;SDS011;42175;46.930;9.532;2023-04-22T13:46:48;4.95;;;2.10;;
56267;SDS011;42175;46.930;9.532;2023-04-22T13:49:14;8.40;;;2.55;;
56267;SDS011;42175;46.930;9.532;2023-04-22T13:51:40;8.48;;;2.30;;
56267;SDS011;42175;46.930;9.532;2023-04-22T13:54:05;6.50;;;2.33;;
56267;SDS011;42175;46.930;9.532;2023-04-22T13:56:32;6.13;;;2.88;;
56267;SDS011;42175;46.930;9.532;2023-04-22T13:58:58;5.75;;;2.00;;
56267;SDS011;42175;46.930;9.532;2023-04-22T14:01:24;6.68;;;2.17;;
56267;SDS011;42175;46.930;9.532;2023-04-22T14:03:50;9.65;;;2.13;;
56267;SDS011;42175;46.930;9.532;2023-04-22T14:06:17;4.47;;;1.92;;
56267;SDS011;42175;46.930;9.532;2023-04-22T14:08:43;6.32;;;2.67;;
56267;SDS011;42175;46.930;9.532;2023-04-22T14:11:09;5.63;;;2.40;;
56267;SDS011;42175;46.930;9.532;2023-04-22T14:13:35;5.00;;;2.22;;
56267;SDS011;42175;46.930;9.532;2023-04-22T14:16:01;3.95;;;2.35;;
56267;SDS011;42175;46.930;9.532;2023-04-22T14:18:31;4.93;;;2.67;;
56267;SDS011;42175;46.930;9.532;2023-04-22T14:21:00;6.40;;;2.58;;
56267;SDS011;42175;46.930;9.532;2023-04-22T14:23:27;5.60;;;2.40;;
56267;SDS011;42175;46.930;9.532;2023-04-22T14:25:52;9.45;;;2.33;;
56267;SDS011;42175;46.930;9.532;2023-04-22T14:28:19;5.22;;;2.38;;
56267;SDS011;42175;46.930;9.532;2023-04-22T14:30:45;6.28;;;2.20;;
56267;SDS011;42175;46.930;9.532;2023-04-22T14:33:10;7.57;;;2.50;;
56267;SDS011;42175;46.930;9.532;2023-04-22T14:35:37;7.03;;;1.90;;
56267;SDS011;42175;46.930;9.532;2023-04-22T14:38:03;6.35;;;2.25;;
56267;SDS011;42175;46.930;9.532;2023-04-22T14:40:31;7.07;;;2.35;;
56267;SDS011;42175;46.930;9.532;2023-04-22T14:42:57;9.52;;;2.22;;
56267;SDS011;42175;46.930;9.532;2023-04-22T14:45:26;4.80;;;2.20;;
56267;SDS011;42175;46.930;9.532;2023-04-22T14:47:53;6.57;;;2.35;;
56267;SDS011;42175;46.930;9.532;2023-04-22T14:50:19;9.95;;;1.90;;
56267;SDS011;42175;46.930;9.532;2023-04-22T14:52:44;9.85;;;2.50;;
56267;SDS011;42175;46.930;9.532;2023-04-22T14:55:10;5.72;;;2.30;;
56267;SDS011;42175;46.930;9.532;2023-04-22T14:57:36;6.00;;;2.28;;
56267;SDS011;42175;46.930;9.532;2023-04-22T15:00:02;6.35;;;2.53;;
56267;SDS011;42175;46.930;9.532;2023-04-22T15:02:32;5.47;;;2.50;;
56267;SDS011;42175;46.930;9.532;2023-04-22T15:04:58;6.97;;;2.00;;